sensor_id;sensor_type;location;lat;lon;timestamp;pressure;altitude;pressure_sealevel;temperature;humidity
70011;BME280;59543;37.950;-122.338;2023-03-03T00:01:36;101750.66;;;14.10;38.33
70011;BME280;59543;37.950;-122.338;2023-03-03T00:04:02;101752.09;;;14.14;36.60
70011;BME280;59543;37.950;-122.338;2023-03-03T00:06:28;101750.97;;;14.07;38.55
70011;BME280;59543;37.950;-122.338;2023-03-03T00:08:54;101749.09;;;14.17;36.52
70011;BME280;59543;37.950;-122.338;2023-03-03T00:11:21;101746.94;;;14.21;36.51
70011;BME280;59543;37.950;-122.338;2023-03-03T00:13:49;101731.72;;;14.10;36.81
70011;BME280;59543;37.950;-122.338;2023-03-03T00:16:16;101732.41;;;14.22;36.35
70011;BME280;59543;37.950;-122.338;2023-03-03T00:18:46;101725.53;;;14.28;37.60
70011;BME280;59543;37.950;-122.338;2023-03-03T00:21:17;101734.00;;;14.15;37.85
70011;BME280;59543;37.950;-122.338;2023-03-03T00:23:47;101744.81;;;14.15;37.60
70011;BME280;59543;37.950;-122.338;2023-03-03T00:26:19;101733.50;;;13.92;37.00
70011;BME280;59543;37.950;-122.338;2023-03-03T00:28:46;101739.13;;;13.61;38.37
70011;BME280;59543;37.950;-122.338;2023-03-03T00:31:16;101737.25;;;13.81;39.30
70011;BME280;59543;37.950;-122.338;2023-03-03T00:33:52;101737.50;;;13.88;38.93
70011;BME280;59543;37.950;-122.338;2023-03-03T00:38:48;101739.50;;;13.86;37.97
70011;BME280;59543;37.950;-122.338;2023-03-03T00:43:45;101742.63;;;13.91;38.57
70011;BME280;59543;37.950;-122.338;2023-03-03T00:46:14;101742.34;;;13.75;39.02
70011;BME280;59543;37.950;-122.338;2023-03-03T00:48:41;101742.13;;;13.58;39.86
70011;BME280;59543;37.950;-122.338;2023-03-03T00:51:19;101729.59;;;13.57;40.27
70011;BME280;59543;37.950;-122.338;2023-03-03T00:53:50;101729.88;;;13.44;41.21
70011;BME280;59543;37.950;-122.338;2023-03-03T00:56:16;101720.75;;;13.16;40.60
70011;BME280;59543;37.950;-122.338;2023-03-03T00:58:42;101725.34;;;13.25;40.80
70011;BME280;59543;37.950;-122.338;2023-03-03T01:01:13;101727.72;;;12.99;40.42
70011;BME280;59543;37.950;-122.338;2023-03-03T01:03:39;101717.19;;;12.87;39.79
70011;BME280;59543;37.950;-122.338;2023-03-03T01:06:05;101712.22;;;13.01;40.96
70011;BME280;59543;37.950;-122.338;2023-03-03T01:08:31;101702.72;;;12.88;40.93
70011;BME280;59543;37.950;-122.338;2023-03-03T01:10:57;101700.97;;;12.96;40.80
70011;BME280;59543;37.950;-122.338;2023-03-03T01:13:29;101709.53;;;12.82;39.89
70011;BME280;59543;37.950;-122.338;2023-03-03T01:15:55;101705.38;;;12.68;42.34
70011;BME280;59543;37.950;-122.338;2023-03-03T01:18:21;101714.75;;;12.84;43.76
70011;BME280;59543;37.950;-122.338;2023-03-03T01:20:47;101723.31;;;12.89;44.45
70011;BME280;59543;37.950;-122.338;2023-03-03T01:23:13;101726.28;;;12.86;43.91
70011;BME280;59543;37.950;-122.338;2023-03-03T01:25:39;101749.84;;;12.64;44.77
70011;BME280;59543;37.950;-122.338;2023-03-03T01:28:04;101747.81;;;12.56;44.48
70011;BME280;59543;37.950;-122.338;2023-03-03T01:30:30;101747.50;;;12.50;44.87
70011;BME280;59543;37.950;-122.338;2023-03-03T01:32:56;101751.81;;;12.62;44.39
70011;BME280;59543;37.950;-122.338;2023-03-03T01:35:22;101754.06;;;12.57;45.10
70011;BME280;59543;37.950;-122.338;2023-03-03T01:37:48;101750.47;;;12.47;45.29
70011;BME280;59543;37.950;-122.338;2023-03-03T01:40:16;101756.44;;;12.41;45.03
70011;BME280;59543;37.950;-122.338;2023-03-03T01:42:42;101766.84;;;12.55;44.54
70011;BME280;59543;37.950;-122.338;2023-03-03T01:45:11;101768.91;;;12.42;45.04
70011;BME280;59543;37.950;-122.338;2023-03-03T01:47:38;101762.19;;;12.26;47.98
70011;BME280;59543;37.950;-122.338;2023-03-03T01:50:11;101762.88;;;12.19;49.56
70011;BME280;59543;37.950;-122.338;2023-03-03T01:52:40;101777.81;;;12.02;49.81
70011;BME280;59543;37.950;-122.338;2023-03-03T01:55:11;101799.13;;;12.05;50.52
70011;BME280;59543;37.950;-122.338;2023-03-03T01:57:42;101802.16;;;11.90;51.70
70011;BME280;59543;37.950;-122.338;2023-03-03T02:00:09;101815.47;;;11.71;52.89
70011;BME280;59543;37.950;-122.338;2023-03-03T02:02:35;101817.47;;;11.58;53.78
70011;BME280;59543;37.950;-122.338;2023-03-03T02:05:02;101818.63;;;11.55;54.55
70011;BME280;59543;37.950;-122.338;2023-03-03T02:07:28;101815.97;;;11.44;55.29
70011;BME280;59543;37.950;-122.338;2023-03-03T02:09:59;101813.53;;;11.41;56.15
70011;BME280;59543;37.950;-122.338;2023-03-03T02:12:38;101818.84;;;11.20;57.11
70011;BME280;59543;37.950;-122.338;2023-03-03T02:15:18;101828.69;;;10.98;58.31
70011;BME280;59543;37.950;-122.338;2023-03-03T02:17:45;101835.34;;;10.72;59.49
70011;BME280;59543;37.950;-122.338;2023-03-03T02:25:28;101838.97;;;10.37;61.81
70011;BME280;59543;37.950;-122.338;2023-03-03T02:27:55;101843.31;;;10.16;62.77
70011;BME280;59543;37.950;-122.338;2023-03-03T02:30:22;101852.72;;;9.99;63.25
70011;BME280;59543;37.950;-122.338;2023-03-03T02:32:48;101850.31;;;9.83;64.33
70011;BME280;59543;37.950;-122.338;2023-03-03T02:35:31;101849.84;;;9.78;64.38
70011;BME280;59543;37.950;-122.338;2023-03-03T02:38:08;101857.53;;;9.82;64.41
70011;BME280;59543;37.950;-122.338;2023-03-03T02:40:35;101871.81;;;9.83;64.56
70011;BME280;59543;37.950;-122.338;2023-03-03T02:43:02;101883.94;;;9.89;64.59
70011;BME280;59543;37.950;-122.338;2023-03-03T02:45:28;101875.34;;;9.83;64.81
70011;BME280;59543;37.950;-122.338;2023-03-03T02:47:54;101866.72;;;9.91;63.96
70011;BME280;59543;37.950;-122.338;2023-03-03T02:50:20;101848.47;;;9.83;64.47
70011;BME280;59543;37.950;-122.338;2023-03-03T02:52:46;101845.06;;;9.81;64.41
70011;BME280;59543;37.950;-122.338;2023-03-03T02:55:11;101829.81;;;9.82;63.97
70011;BME280;59543;37.950;-122.338;2023-03-03T02:57:37;101830.88;;;9.79;64.08
70011;BME280;59543;37.950;-122.338;2023-03-03T03:00:04;101832.72;;;9.79;63.43
70011;BME280;59543;37.950;-122.338;2023-03-03T03:02:30;101830.13;;;9.77;63.65
70011;BME280;59543;37.950;-122.338;2023-03-03T03:04:56;101831.34;;;9.73;63.46
70011;BME280;59543;37.950;-122.338;2023-03-03T03:07:21;101827.44;;;9.77;63.33
70011;BME280;59543;37.950;-122.338;2023-03-03T03:09:47;101825.09;;;9.61;64.17
70011;BME280;59543;37.950;-122.338;2023-03-03T03:12:14;101811.28;;;9.55;64.09
70011;BME280;59543;37.950;-122.338;2023-03-03T03:14:40;101808.22;;;9.59;63.97
70011;BME280;59543;37.950;-122.338;2023-03-03T03:17:06;101812.97;;;9.56;63.81
70011;BME280;59543;37.950;-122.338;2023-03-03T03:19:32;101811.38;;;9.53;64.08
70011;BME280;59543;37.950;-122.338;2023-03-03T03:21:58;101811.72;;;9.49;64.33
70011;BME280;59543;37.950;-122.338;2023-03-03T03:24:23;101812.53;;;9.38;64.88
70011;BME280;59543;37.950;-122.338;2023-03-03T03:26:50;101814.03;;;9.42;64.23
70011;BME280;59543;37.950;-122.338;2023-03-03T03:29:16;101807.59;;;9.45;64.25
70011;BME280;59543;37.950;-122.338;2023-03-03T03:31:41;101813.66;;;9.47;64.35
70011;BME280;59543;37.950;-122.338;2023-03-03T03:34:08;101808.06;;;9.50;63.90
70011;BME280;59543;37.950;-122.338;2023-03-03T03:36:34;101805.75;;;9.45;64.39
70011;BME280;59543;37.950;-122.338;2023-03-03T03:38:59;101808.19;;;9.48;64.19
70011;BME280;59543;37.950;-122.338;2023-03-03T03:41:27;101810.03;;;9.48;63.83
70011;BME280;59543;37.950;-122.338;2023-03-03T03:43:52;101810.47;;;9.42;64.08
70011;BME280;59543;37.950;-122.338;2023-03-03T03:46:18;101809.44;;;9.31;64.90
70011;BME280;59543;37.950;-122.338;2023-03-03T03:48:44;101801.31;;;9.33;64.92
70011;BME280;59543;37.950;-122.338;2023-03-03T03:51:10;101800.03;;;9.26;65.07
70011;BME280;59543;37.950;-122.338;2023-03-03T03:53:36;101799.53;;;9.21;65.36
70011;BME280;59543;37.950;-122.338;2023-03-03T03:56:02;101794.94;;;9.10;65.77
70011;BME280;59543;37.950;-122.338;2023-03-03T03:58:28;101793.03;;;9.12;65.85
70011;BME280;59543;37.950;-122.338;2023-03-03T04:00:54;101791.56;;;9.19;65.25
70011;BME280;59543;37.950;-122.338;2023-03-03T04:03:20;101791.97;;;9.26;65.29
70011;BME280;59543;37.950;-122.338;2023-03-03T04:05:46;101791.47;;;9.21;65.58
70011;BME280;59543;37.950;-122.338;2023-03-03T04:08:11;101803.78;;;9.23;65.35
70011;BME280;59543;37.950;-122.338;2023-03-03T04:10:37;101819.41;;;9.18;65.33
70011;BME280;59543;37.950;-122.338;2023-03-03T04:13:03;101819.88;;;9.12;65.83
70011;BME280;59543;37.950;-122.338;2023-03-03T04:15:29;101818.34;;;9.08;66.23
70011;BME280;59543;37.950;-122.338;2023-03-03T04:17:55;101813.97;;;9.07;66.38
70011;BME280;59543;37.950;-122.338;2023-03-03T04:20:21;101802.47;;;9.05;66.17
70011;BME280;59543;37.950;-122.338;2023-03-03T04:22:47;101800.25;;;8.99;67.25
70011;BME280;59543;37.950;-122.338;2023-03-03T04:25:14;101805.91;;;9.07;66.65
70011;BME280;59543;37.950;-122.338;2023-03-03T04:27:40;101797.50;;;9.11;66.59
70011;BME280;59543;37.950;-122.338;2023-03-03T04:30:07;101798.94;;;9.04;67.10
70011;BME280;59543;37.950;-122.338;2023-03-03T04:32:33;101801.53;;;9.06;67.05
70011;BME280;59543;37.950;-122.338;2023-03-03T04:35:00;101810.81;;;9.13;67.03
70011;BME280;59543;37.950;-122.338;2023-03-03T04:37:26;101814.88;;;9.19;67.19
70011;BME280;59543;37.950;-122.338;2023-03-03T04:39:52;101802.84;;;9.24;67.48
70011;BME280;59543;37.950;-122.338;2023-03-03T04:42:18;101814.75;;;9.20;68.44
70011;BME280;59543;37.950;-122.338;2023-03-03T04:44:43;101820.88;;;9.22;69.37
70011;BME280;59543;37.950;-122.338;2023-03-03T04:47:09;101820.66;;;9.25;69.02
70011;BME280;59543;37.950;-122.338;2023-03-03T04:49:35;101820.72;;;9.12;70.15
70011;BME280;59543;37.950;-122.338;2023-03-03T04:52:01;101823.03;;;9.17;69.89
70011;BME280;59543;37.950;-122.338;2023-03-03T04:54:27;101821.44;;;9.14;70.02
70011;BME280;59543;37.950;-122.338;2023-03-03T04:56:53;101827.03;;;9.11;70.79
70011;BME280;59543;37.950;-122.338;2023-03-03T04:59:19;101831.31;;;9.14;70.95
70011;BME280;59543;37.950;-122.338;2023-03-03T05:01:44;101839.81;;;9.08;71.00
70011;BME280;59543;37.950;-122.338;2023-03-03T05:04:10;101842.88;;;9.03;70.78
70011;BME280;59543;37.950;-122.338;2023-03-03T05:06:39;101849.97;;;8.91;70.93
70011;BME280;59543;37.950;-122.338;2023-03-03T05:09:05;101851.38;;;8.84;71.20
70011;BME280;59543;37.950;-122.338;2023-03-03T05:11:31;101858.91;;;8.79;71.98
70011;BME280;59543;37.950;-122.338;2023-03-03T05:13:57;101857.31;;;8.77;71.58
70011;BME280;59543;37.950;-122.338;2023-03-03T05:16:23;101872.84;;;8.84;71.47
70011;BME280;59543;37.950;-122.338;2023-03-03T05:18:49;101871.47;;;8.79;71.47
70011;BME280;59543;37.950;-122.338;2023-03-03T05:21:14;101872.63;;;8.75;71.36
70011;BME280;59543;37.950;-122.338;2023-03-03T05:23:40;101868.06;;;8.64;72.60
70011;BME280;59543;37.950;-122.338;2023-03-03T05:26:06;101874.47;;;8.74;71.54
70011;BME280;59543;37.950;-122.338;2023-03-03T05:28:32;101869.09;;;8.74;71.40
70011;BME280;59543;37.950;-122.338;2023-03-03T05:30:58;101870.19;;;8.72;71.70
70011;BME280;59543;37.950;-122.338;2023-03-03T05:33:24;101869.66;;;8.66;71.60
70011;BME280;59543;37.950;-122.338;2023-03-03T05:35:53;101878.78;;;8.51;72.94
70011;BME280;59543;37.950;-122.338;2023-03-03T05:38:19;101873.84;;;8.45;73.30
70011;BME280;59543;37.950;-122.338;2023-03-03T05:40:45;101879.88;;;8.49;73.09
70011;BME280;59543;37.950;-122.338;2023-03-03T05:43:11;101874.06;;;8.42;72.82
70011;BME280;59543;37.950;-122.338;2023-03-03T05:45:37;101857.72;;;8.32;73.43
70011;BME280;59543;37.950;-122.338;2023-03-03T05:48:03;101861.38;;;8.31;73.97
70011;BME280;59543;37.950;-122.338;2023-03-03T05:50:29;101857.72;;;8.19;74.85
70011;BME280;59543;37.950;-122.338;2023-03-03T05:52:55;101860.06;;;8.24;74.13
70011;BME280;59543;37.950;-122.338;2023-03-03T05:55:21;101853.22;;;8.33;73.30
70011;BME280;59543;37.950;-122.338;2023-03-03T05:57:47;101857.50;;;8.22;73.48
70011;BME280;59543;37.950;-122.338;2023-03-03T06:00:13;101865.00;;;8.17;73.47
70011;BME280;59543;37.950;-122.338;2023-03-03T06:02:40;101870.50;;;8.16;73.06
70011;BME280;59543;37.950;-122.338;2023-03-03T06:05:06;101873.81;;;8.19;72.90
70011;BME280;59543;37.950;-122.338;2023-03-03T06:07:32;101864.50;;;8.12;72.75
70011;BME280;59543;37.950;-122.338;2023-03-03T06:09:58;101863.19;;;8.05;73.02
70011;BME280;59543;37.950;-122.338;2023-03-03T06:12:24;101859.88;;;8.14;73.19
70011;BME280;59543;37.950;-122.338;2023-03-03T06:14:50;101861.47;;;8.04;73.49
70011;BME280;59543;37.950;-122.338;2023-03-03T06:17:15;101878.06;;;7.96;74.11
70011;BME280;59543;37.950;-122.338;2023-03-03T06:19:41;101875.72;;;7.92;73.80
70011;BME280;59543;37.950;-122.338;2023-03-03T06:22:07;101876.84;;;7.88;74.30
70011;BME280;59543;37.950;-122.338;2023-03-03T06:24:33;101881.91;;;7.92;74.30
70011;BME280;59543;37.950;-122.338;2023-03-03T06:26:59;101881.16;;;7.90;74.40
70011;BME280;59543;37.950;-122.338;2023-03-03T06:29:26;101872.59;;;7.85;74.01
70011;BME280;59543;37.950;-122.338;2023-03-03T06:31:52;101864.41;;;7.74;74.93
70011;BME280;59543;37.950;-122.338;2023-03-03T06:34:18;101866.56;;;7.82;74.42
70011;BME280;59543;37.950;-122.338;2023-03-03T06:36:44;101858.94;;;7.75;74.09
70011;BME280;59543;37.950;-122.338;2023-03-03T06:39:10;101859.34;;;7.69;74.78
70011;BME280;59543;37.950;-122.338;2023-03-03T06:41:36;101842.44;;;7.69;74.53
70011;BME280;59543;37.950;-122.338;2023-03-03T06:44:02;101845.31;;;7.66;74.76
70011;BME280;59543;37.950;-122.338;2023-03-03T06:46:28;101832.34;;;7.60;74.41
70011;BME280;59543;37.950;-122.338;2023-03-03T06:48:53;101841.44;;;7.57;75.46
70011;BME280;59543;37.950;-122.338;2023-03-03T06:51:38;101829.44;;;7.50;75.54
70011;BME280;59543;37.950;-122.338;2023-03-03T06:54:14;101828.41;;;7.38;76.01
70011;BME280;59543;37.950;-122.338;2023-03-03T06:56:41;101834.34;;;7.43;75.91
70011;BME280;59543;37.950;-122.338;2023-03-03T06:59:14;101834.53;;;7.40;75.93
70011;BME280;59543;37.950;-122.338;2023-03-03T07:01:40;101832.06;;;7.37;75.91
70011;BME280;59543;37.950;-122.338;2023-03-03T07:04:10;101844.88;;;7.32;76.45
70011;BME280;59543;37.950;-122.338;2023-03-03T07:06:38;101841.84;;;7.24;76.96
70011;BME280;59543;37.950;-122.338;2023-03-03T07:09:07;101846.78;;;7.30;76.33
70011;BME280;59543;37.950;-122.338;2023-03-03T07:11:33;101852.56;;;7.24;76.49
70011;BME280;59543;37.950;-122.338;2023-03-03T07:14:04;101867.34;;;7.29;76.22
70011;BME280;59543;37.950;-122.338;2023-03-03T07:16:36;101866.69;;;7.26;76.09
70011;BME280;59543;37.950;-122.338;2023-03-03T07:19:01;101866.91;;;7.23;76.55
70011;BME280;59543;37.950;-122.338;2023-03-03T07:21:33;101866.44;;;7.16;76.55
70011;BME280;59543;37.950;-122.338;2023-03-03T07:24:00;101870.25;;;7.12;76.31
70011;BME280;59543;37.950;-122.338;2023-03-03T07:26:30;101883.09;;;7.07;76.41
70011;BME280;59543;37.950;-122.338;2023-03-03T07:31:45;101893.69;;;6.94;76.44
70011;BME280;59543;37.950;-122.338;2023-03-03T07:34:35;101900.59;;;6.84;76.44
70011;BME280;59543;37.950;-122.338;2023-03-03T07:37:02;101900.78;;;6.67;77.27
70011;BME280;59543;37.950;-122.338;2023-03-03T07:39:37;101909.84;;;6.64;77.67
70011;BME280;59543;37.950;-122.338;2023-03-03T07:44:34;101897.53;;;6.47;78.02
70011;BME280;59543;37.950;-122.338;2023-03-03T07:47:11;101898.47;;;6.46;77.83
70011;BME280;59543;37.950;-122.338;2023-03-03T07:49:40;101901.34;;;6.43;77.69
70011;BME280;59543;37.950;-122.338;2023-03-03T07:52:25;101895.47;;;6.22;79.41
70011;BME280;59543;37.950;-122.338;2023-03-03T07:54:52;101895.38;;;6.09;80.90
70011;BME280;59543;37.950;-122.338;2023-03-03T08:07:43;101891.91;;;6.07;79.75
70011;BME280;59543;37.950;-122.338;2023-03-03T08:10:26;101887.91;;;6.00;79.53
70011;BME280;59543;37.950;-122.338;2023-03-03T08:12:53;101886.72;;;5.90;81.22
70011;BME280;59543;37.950;-122.338;2023-03-03T08:15:30;101880.00;;;5.83;81.49
70011;BME280;59543;37.950;-122.338;2023-03-03T08:17:56;101892.50;;;5.82;81.44
70011;BME280;59543;37.950;-122.338;2023-03-03T08:20:41;101891.53;;;5.83;80.91
70011;BME280;59543;37.950;-122.338;2023-03-03T08:23:07;101891.44;;;5.85;80.03
70011;BME280;59543;37.950;-122.338;2023-03-03T08:25:33;101898.38;;;5.73;80.89
70011;BME280;59543;37.950;-122.338;2023-03-03T08:27:59;101888.72;;;5.70;81.93
70011;BME280;59543;37.950;-122.338;2023-03-03T08:30:25;101893.72;;;5.77;81.41
70011;BME280;59543;37.950;-122.338;2023-03-03T08:32:51;101895.53;;;5.76;80.98
70011;BME280;59543;37.950;-122.338;2023-03-03T08:35:16;101901.28;;;5.68;81.02
70011;BME280;59543;37.950;-122.338;2023-03-03T08:37:42;101900.63;;;5.65;81.50
70011;BME280;59543;37.950;-122.338;2023-03-03T08:40:08;101898.63;;;5.68;80.56
70011;BME280;59543;37.950;-122.338;2023-03-03T08:42:34;101898.06;;;5.63;80.13
70011;BME280;59543;37.950;-122.338;2023-03-03T08:45:00;101892.97;;;5.59;80.88
70011;BME280;59543;37.950;-122.338;2023-03-03T08:47:26;101897.72;;;5.54;80.87
70011;BME280;59543;37.950;-122.338;2023-03-03T08:49:52;101900.47;;;5.52;81.67
70011;BME280;59543;37.950;-122.338;2023-03-03T08:52:18;101891.97;;;5.45;82.13
70011;BME280;59543;37.950;-122.338;2023-03-03T08:54:44;101894.19;;;5.37;83.26
70011;BME280;59543;37.950;-122.338;2023-03-03T08:57:10;101880.00;;;5.37;83.15
70011;BME280;59543;37.950;-122.338;2023-03-03T08:59:36;101874.00;;;5.33;82.84
70011;BME280;59543;37.950;-122.338;2023-03-03T09:02:06;101865.31;;;5.30;82.58
70011;BME280;59543;37.950;-122.338;2023-03-03T09:04:32;101873.03;;;5.34;82.84
70011;BME280;59543;37.950;-122.338;2023-03-03T09:06:59;101879.16;;;5.36;81.98
70011;BME280;59543;37.950;-122.338;2023-03-03T09:09:25;101875.88;;;5.15;83.18
70011;BME280;59543;37.950;-122.338;2023-03-03T09:11:56;101872.53;;;5.12;84.07
70011;BME280;59543;37.950;-122.338;2023-03-03T09:14:22;101880.38;;;5.15;83.60
70011;BME280;59543;37.950;-122.338;2023-03-03T09:16:53;101877.34;;;5.21;82.46
70011;BME280;59543;37.950;-122.338;2023-03-03T09:19:30;101877.88;;;5.12;83.62
70011;BME280;59543;37.950;-122.338;2023-03-03T09:22:01;101877.88;;;5.12;83.31
70011;BME280;59543;37.950;-122.338;2023-03-03T09:24:28;101878.38;;;5.02;85.10
70011;BME280;59543;37.950;-122.338;2023-03-03T09:26:55;101880.00;;;5.05;85.06
70011;BME280;59543;37.950;-122.338;2023-03-03T09:29:24;101879.94;;;5.07;84.57
70011;BME280;59543;37.950;-122.338;2023-03-03T09:31:58;101870.97;;;4.92;85.87
70011;BME280;59543;37.950;-122.338;2023-03-03T09:36:58;101856.16;;;4.86;86.63
70011;BME280;59543;37.950;-122.338;2023-03-03T09:39:25;101856.63;;;4.94;86.50
70011;BME280;59543;37.950;-122.338;2023-03-03T09:46:56;101840.34;;;5.15;87.09
70011;BME280;59543;37.950;-122.338;2023-03-03T09:49:31;101842.41;;;5.25;86.79
70011;BME280;59543;37.950;-122.338;2023-03-03T09:54:55;101834.38;;;5.25;87.53
70011;BME280;59543;37.950;-122.338;2023-03-03T10:02:34;101816.41;;;5.29;87.82
70011;BME280;59543;37.950;-122.338;2023-03-03T10:13:01;101815.47;;;5.14;86.70
70011;BME280;59543;37.950;-122.338;2023-03-03T10:18:22;101822.91;;;5.09;86.64
70011;BME280;59543;37.950;-122.338;2023-03-03T10:25:52;101814.88;;;5.09;86.91
70011;BME280;59543;37.950;-122.338;2023-03-03T10:41:42;101831.13;;;5.04;86.35
70011;BME280;59543;37.950;-122.338;2023-03-03T10:44:28;101826.94;;;5.00;87.04
70011;BME280;59543;37.950;-122.338;2023-03-03T10:47:00;101826.09;;;5.00;86.71
70011;BME280;59543;37.950;-122.338;2023-03-03T11:00:22;101803.78;;;4.53;88.76
70011;BME280;59543;37.950;-122.338;2023-03-03T11:02:54;101802.06;;;4.68;87.82
70011;BME280;59543;37.950;-122.338;2023-03-03T11:08:11;101801.03;;;4.55;88.27
70011;BME280;59543;37.950;-122.338;2023-03-03T11:21:25;101801.09;;;4.38;87.35
70011;BME280;59543;37.950;-122.338;2023-03-03T11:36:27;101808.03;;;4.24;87.47
70011;BME280;59543;37.950;-122.338;2023-03-03T11:38:58;101805.38;;;4.24;86.73
70011;BME280;59543;37.950;-122.338;2023-03-03T11:44:13;101811.91;;;4.01;87.32
70011;BME280;59543;37.950;-122.338;2023-03-03T11:46:47;101808.66;;;4.12;87.09
70011;BME280;59543;37.950;-122.338;2023-03-03T11:49:16;101809.31;;;4.00;86.94
70011;BME280;59543;37.950;-122.338;2023-03-03T11:51:52;101810.09;;;4.02;86.50
70011;BME280;59543;37.950;-122.338;2023-03-03T11:54:27;101807.75;;;3.96;87.41
70011;BME280;59543;37.950;-122.338;2023-03-03T11:57:06;101802.91;;;3.86;87.61
70011;BME280;59543;37.950;-122.338;2023-03-03T12:02:35;101793.34;;;4.00;87.58
70011;BME280;59543;37.950;-122.338;2023-03-03T12:07:58;101793.81;;;3.90;89.02
70011;BME280;59543;37.950;-122.338;2023-03-03T12:10:30;101788.91;;;3.83;90.32
70011;BME280;59543;37.950;-122.338;2023-03-03T12:13:12;101790.88;;;3.79;90.65
70011;BME280;59543;37.950;-122.338;2023-03-03T12:18:15;101799.19;;;3.73;90.10
70011;BME280;59543;37.950;-122.338;2023-03-03T12:20:52;101799.25;;;3.72;89.63
70011;BME280;59543;37.950;-122.338;2023-03-03T12:26:24;101780.06;;;3.82;89.16
70011;BME280;59543;37.950;-122.338;2023-03-03T12:28:45;101783.97;;;3.75;88.06
70011;BME280;59543;37.950;-122.338;2023-03-03T12:43:47;101785.78;;;3.57;89.73
70011;BME280;59543;37.950;-122.338;2023-03-03T12:48:54;101780.72;;;3.53;89.32
70011;BME280;59543;37.950;-122.338;2023-03-03T12:51:30;101774.97;;;3.60;89.37
70011;BME280;59543;37.950;-122.338;2023-03-03T12:54:05;101767.78;;;3.62;88.92
70011;BME280;59543;37.950;-122.338;2023-03-03T13:01:39;101747.47;;;3.61;90.12
70011;BME280;59543;37.950;-122.338;2023-03-03T13:25:10;101735.00;;;3.62;90.72
70011;BME280;59543;37.950;-122.338;2023-03-03T13:27:38;101733.75;;;3.52;90.92
70011;BME280;59543;37.950;-122.338;2023-03-03T13:37:45;101740.50;;;3.59;90.29
70011;BME280;59543;37.950;-122.338;2023-03-03T13:45:17;101748.84;;;3.51;90.86
70011;BME280;59543;37.950;-122.338;2023-03-03T13:55:40;101736.25;;;3.55;89.61
70011;BME280;59543;37.950;-122.338;2023-03-03T14:00:45;101746.03;;;3.54;89.77
70011;BME280;59543;37.950;-122.338;2023-03-03T14:03:28;101746.19;;;3.51;89.82
70011;BME280;59543;37.950;-122.338;2023-03-03T14:06:03;101759.44;;;3.53;90.01
70011;BME280;59543;37.950;-122.338;2023-03-03T14:13:30;101760.66;;;3.46;89.46
70011;BME280;59543;37.950;-122.338;2023-03-03T14:16:03;101760.81;;;3.60;91.51
70011;BME280;59543;37.950;-122.338;2023-03-03T14:18:32;101763.00;;;3.69;90.61
70011;BME280;59543;37.950;-122.338;2023-03-03T14:21:25;101759.97;;;3.59;90.71
70011;BME280;59543;37.950;-122.338;2023-03-03T14:23:49;101779.44;;;3.60;90.44
70011;BME280;59543;37.950;-122.338;2023-03-03T14:26:16;101767.09;;;3.59;90.22
70011;BME280;59543;37.950;-122.338;2023-03-03T14:28:43;101766.56;;;3.52;90.58
70011;BME280;59543;37.950;-122.338;2023-03-03T14:31:22;101775.41;;;3.53;90.75
70011;BME280;59543;37.950;-122.338;2023-03-03T14:36:35;101795.88;;;3.51;90.14
70011;BME280;59543;37.950;-122.338;2023-03-03T14:39:04;101792.28;;;3.52;89.50
70011;BME280;59543;37.950;-122.338;2023-03-03T14:41:48;101792.53;;;3.47;89.83
70011;BME280;59543;37.950;-122.338;2023-03-03T14:44:24;101797.19;;;3.42;90.06
70011;BME280;59543;37.950;-122.338;2023-03-03T14:49:32;101795.00;;;3.85;92.06
70011;BME280;59543;37.950;-122.338;2023-03-03T14:52:02;101790.72;;;3.82;93.08
70011;BME280;59543;37.950;-122.338;2023-03-03T14:54:33;101797.44;;;3.89;93.97
70011;BME280;59543;37.950;-122.338;2023-03-03T14:59:39;101790.81;;;4.14;94.43
70011;BME280;59543;37.950;-122.338;2023-03-03T15:04:40;101796.16;;;4.30;93.36
70011;BME280;59543;37.950;-122.338;2023-03-03T15:07:39;101805.97;;;4.29;93.27
70011;BME280;59543;37.950;-122.338;2023-03-03T15:09:58;101800.56;;;4.31;93.34
70011;BME280;59543;37.950;-122.338;2023-03-03T15:12:26;101801.50;;;4.30;92.81
70011;BME280;59543;37.950;-122.338;2023-03-03T15:15:09;101804.41;;;4.25;93.23
70011;BME280;59543;37.950;-122.338;2023-03-03T15:17:42;101805.59;;;4.20;92.89
70011;BME280;59543;37.950;-122.338;2023-03-03T15:27:47;101818.72;;;4.40;94.04
70011;BME280;59543;37.950;-122.338;2023-03-03T15:30:19;101818.22;;;4.49;94.28
70011;BME280;59543;37.950;-122.338;2023-03-03T15:32:52;101815.91;;;4.59;94.51
70011;BME280;59543;37.950;-122.338;2023-03-03T15:37:59;101815.84;;;4.76;94.53
70011;BME280;59543;37.950;-122.338;2023-03-03T15:45:30;101814.09;;;5.07;95.51
70011;BME280;59543;37.950;-122.338;2023-03-03T15:48:07;101821.50;;;5.18;96.24
70011;BME280;59543;37.950;-122.338;2023-03-03T15:50:38;101822.16;;;5.37;98.46
70011;BME280;59543;37.950;-122.338;2023-03-03T15:53:11;101830.81;;;5.57;98.38
70011;BME280;59543;37.950;-122.338;2023-03-03T15:58:16;101845.47;;;5.80;98.05
70011;BME280;59543;37.950;-122.338;2023-03-03T16:03:56;101832.22;;;6.23;96.97
70011;BME280;59543;37.950;-122.338;2023-03-03T16:09:05;101842.44;;;6.73;92.87
70011;BME280;59543;37.950;-122.338;2023-03-03T16:11:40;101849.47;;;6.88;91.25
70011;BME280;59543;37.950;-122.338;2023-03-03T16:14:15;101851.16;;;7.04;90.08
70011;BME280;59543;37.950;-122.338;2023-03-03T16:16:53;101847.44;;;7.06;88.30
70011;BME280;59543;37.950;-122.338;2023-03-03T16:19:38;101836.91;;;7.18;87.16
70011;BME280;59543;37.950;-122.338;2023-03-03T16:22:20;101837.53;;;7.21;85.98